Time;durP1;ratioP1;P1;durP2;ratioP2;P2;SDS_P1;SDS_P2;PMS_P1;PMS_P2;Temp;Humidity;BMP_temperature;BMP_pressure;BME280_temperature;BME280_humidity;BME280_pressure;Samples;Min_cycle;Max_cycle;Signal;HPM_P1;HPM_P2
2021/11/20 00:00:12;;;;;;;32.40;18.97;;;;;;;2.89;100.00;99467.23;1780488;81;21007;-71
2021/11/20 00:02:39;;;;;;;31.10;18.50;;;;;;;2.91;100.00;99471.45;1780483;80;21027;-71
2021/11/20 00:05:07;;;;;;;30.97;17.87;;;;;;;2.92;100.00;99461.60;1780644;81;20954;-70
2021/11/20 00:07:34;;;;;;;30.10;17.30;;;;;;;2.93;100.00;99457.97;1780463;81;21034;-71
2021/11/20 00:10:05;;;;;;;27.93;17.30;;;;;;;2.93;100.00;99449.45;1787984;80;21017;-71
2021/11/20 00:12:32;;;;;;;33.03;18.20;;;;;;;2.91;100.00;99448.75;1796110;80;21046;-70
2021/11/20 00:14:59;;;;;;;31.03;17.70;;;;;;;2.91;100.00;99442.07;1795817;80;21018;-70
2021/11/20 00:17:26;;;;;;;30.83;17.80;;;;;;;2.90;100.00;99444.87;1795940;80;21498;-70
2021/11/20 00:19:53;;;;;;;29.27;17.80;;;;;;;2.91;100.00;99436.73;1795926;80;21001;-70
2021/11/20 00:22:25;;;;;;;30.90;17.13;;;;;;;2.94;100.00;99426.25;1796061;80;21014;-69
2021/11/20 00:24:56;;;;;;;33.13;17.33;;;;;;;2.94;100.00;99424.45;1700063;84;21053;-70
2021/11/20 00:27:33;;;;;;;32.73;18.15;;;;;;;2.93;100.00;99420.08;1700331;84;21034;-70
2021/11/20 00:30:03;;;;;;;31.03;18.53;;;;;;;2.95;100.00;99405.25;1696027;84;21556;-71
2021/11/20 00:32:35;;;;;;;30.83;18.30;;;;;;;2.95;100.00;99402.08;1699731;84;21066;-71
2021/11/20 00:35:08;;;;;;;32.57;18.83;;;;;;;2.95;100.00;99392.73;1700377;84;21022;-70
2021/11/20 00:37:36;;;;;;;33.53;18.50;;;;;;;2.93;100.00;99390.70;1700494;84;21022;-70
2021/11/20 00:40:04;;;;;;;33.57;19.37;;;;;;;2.94;100.00;99385.72;1700099;84;21603;-70
2021/11/20 00:42:31;;;;;;;32.83;19.60;;;;;;;2.95;100.00;99394.06;1699125;84;21539;-70
2021/11/20 00:44:58;;;;;;;33.17;20.30;;;;;;;2.96;100.00;99377.08;1699016;84;21140;-71
2021/11/20 00:47:25;;;;;;;33.03;19.57;;;;;;;2.96;100.00;99370.90;1699203;84;21536;-68
2021/11/20 00:49:52;;;;;;;35.53;19.70;;;;;;;2.96;100.00;99369.56;1699285;84;20994;-71
2021/11/20 00:52:19;;;;;;;40.37;19.93;;;;;;;2.97;100.00;99368.06;1699238;84;21098;-70
2021/11/20 00:54:49;;;;;;;36.67;21.97;;;;;;;2.98;100.00;99369.77;1699689;84;21087;-71
2021/11/20 00:57:16;;;;;;;32.60;19.03;;;;;;;3.02;100.00;99364.98;1699557;84;21034;-71
2021/11/20 00:59:43;;;;;;;35.03;20.00;;;;;;;3.05;100.00;99362.05;1699661;84;21093;-70
2021/11/20 01:02:10;;;;;;;36.17;21.57;;;;;;;3.06;100.00;99352.20;1699569;84;21034;-70
2021/11/20 01:04:37;;;;;;;31.90;19.10;;;;;;;3.07;100.00;99337.87;1699616;84;21547;-70
2021/11/20 01:07:05;;;;;;;35.83;19.53;;;;;;;3.09;100.00;99338.07;1699571;84;21031;-70
2021/11/20 01:09:39;;;;;;;34.93;20.80;;;;;;;3.11;100.00;99325.41;1703595;84;21037;-71
2021/11/20 01:12:11;;;;;;;35.73;20.75;;;;;;;3.11;100.00;99319.23;1690006;84;21103;-71
2021/11/20 01:14:39;;;;;;;33.67;20.23;;;;;;;3.12;100.00;99311.08;1713877;84;21498;-70
2021/11/20 01:17:09;;;;;;;36.03;21.23;;;;;;;3.13;100.00;99302.56;1713759;84;21092;-71
2021/11/20 01:19:37;;;;;;;36.40;20.97;;;;;;;3.13;100.00;99295.89;1712790;84;21052;-72
2021/11/20 01:22:09;;;;;;;37.40;20.87;;;;;;;3.15;100.00;99297.92;1769826;80;20998;-70
2021/11/20 01:24:57;;;;;;;33.33;20.75;;;;;;;3.14;100.00;99289.08;1719217;83;21603;-70
2021/11/20 01:27:25;;;;;;;34.90;19.97;;;;;;;3.15;100.00;99292.58;1715628;83;21585;-70
2021/11/20 01:29:55;;;;;;;35.93;21.13;;;;;;;3.15;100.00;99281.89;1715739;83;21046;-70
2021/11/20 01:32:22;;;;;;;37.30;22.93;;;;;;;3.14;100.00;99286.40;1719407;83;21065;-71
2021/11/20 01:34:49;;;;;;;39.57;23.10;;;;;;;3.13;100.00;99282.03;1719439;83;21536;-72
2021/11/20 01:37:15;;;;;;;37.37;22.33;;;;;;;3.16;100.00;99287.09;1719440;83;21090;-71
2021/11/20 01:39:44;;;;;;;39.77;22.43;;;;;;;3.17;100.00;99273.23;1719674;83;21577;-70
2021/11/20 01:42:28;;;;;;;35.53;21.83;;;;;;;3.19;100.00;99265.95;1719611;83;21090;-72
2021/11/20 01:45:07;;;;;;;38.63;21.87;;;;;;;3.20;100.00;99258.27;1715834;82;21038;-70
2021/11/20 01:47:58;;;;;;;38.73;23.20;;;;;;;3.18;100.00;99259.73;1719221;82;21551;-70
2021/11/20 01:50:37;;;;;;;38.00;22.47;;;;;;;3.19;100.00;99252.09;1715954;83;21038;-71
2021/11/20 01:53:16;;;;;;;38.83;22.67;;;;;;;3.22;100.00;99258.96;1719267;83;21066;-70
2021/11/20 01:56:09;;;;;;;35.47;21.13;;;;;;;3.23;100.00;99245.97;1747359;80;21050;-69
2021/11/20 01:59:03;;;;;;;36.37;22.40;;;;;;;3.23;100.00;99240.63;1719205;82;21086;-71
2021/11/20 02:01:38;;;;;;;36.33;22.17;;;;;;;3.23;100.00;99237.95;1675655;86;21537;-71
2021/11/20 02:04:28;;;;;;;36.53;22.10;;;;;;;3.22;100.00;99241.13;1675488;84;21580;-71
2021/11/20 02:07:02;;;;;;;36.03;21.57;;;;;;;3.22;100.00;99218.41;1675854;84;21103;-71
2021/11/20 02:09:48;;;;;;;34.83;21.07;;;;;;;3.22;100.00;99230.44;1673997;84;21034;-70
2021/11/20 02:12:27;;;;;;;39.33;24.00;;;;;;;3.22;100.00;99230.91;1627282;88;21075;-72
2021/11/20 02:14:54;;;;;;;40.33;24.33;;;;;;;3.22;100.00;99237.59;1599480;88;21085;-72
2021/11/20 02:17:28;;;;;;;37.33;23.37;;;;;;;3.20;100.00;99233.72;1599113;90;21089;-71
2021/11/20 02:20:00;;;;;;;35.63;21.77;;;;;;;3.21;100.00;99221.23;1573273;91;21116;-71
2021/11/20 02:22:36;;;;;;;40.87;23.73;;;;;;;3.22;100.00;99216.22;1599149;90;21165;-71
2021/11/20 02:25:04;;;;;;;35.10;21.47;;;;;;;3.22;100.00;99217.08;1573254;91;21175;-70
2021/11/20 02:27:52;;;;;;;36.07;21.73;;;;;;;3.25;100.00;99208.42;1599112;87;21061;-70
2021/11/20 02:30:38;;;;;;;34.30;20.50;;;;;;;3.28;100.00;99202.30;1599236;90;21125;-72
2021/11/20 02:33:17;;;;;;;37.70;22.00;;;;;;;3.30;100.00;99192.30;1555831;92;21172;-69
2021/11/20 02:35:57;;;;;;;35.47;21.03;;;;;;;3.31;100.00;99188.66;1606978;89;21075;-71
2021/11/20 02:38:29;;;;;;;36.87;22.63;;;;;;;3.33;100.00;99190.68;1521898;93;21086;-70
2021/11/20 02:40:56;;;;;;;36.90;22.20;;;;;;;3.35;100.00;99186.03;1551478;92;21093;-71
2021/11/20 02:43:24;;;;;;;40.67;23.47;;;;;;;3.37;100.00;99180.03;1551234;92;21161;-72
2021/11/20 02:45:59;;;;;;;37.10;21.67;;;;;;;3.40;100.00;99180.26;1551682;91;21114;-71
2021/11/20 02:48:26;;;;;;;38.83;21.77;;;;;;;3.44;100.00;99180.80;1551386;92;21127;-71
2021/11/20 02:50:58;;;;;;;37.47;21.30;;;;;;;3.46;100.00;99172.14;1530061;92;21089;-71
2021/11/20 02:53:39;;;;;;;39.13;22.47;;;;;;;3.50;100.00;99171.68;1479134;97;21153;-73
2021/11/20 02:56:10;;;;;;;36.40;21.93;;;;;;;3.52;100.00;99159.52;1454051;98;21092;-72
2021/11/20 02:58:37;;;;;;;41.77;22.93;;;;;;;3.53;100.00;99167.89;1459113;98;21484;-72
2021/11/20 03:01:12;;;;;;;36.33;20.17;;;;;;;3.54;100.00;99157.05;1459217;98;21065;-71
2021/11/20 03:03:39;;;;;;;35.37;21.37;;;;;;;3.56;100.00;99148.39;1437649;100;21662;-72
2021/11/20 03:06:07;;;;;;;35.30;21.70;;;;;;;3.56;100.00;99136.36;1437680;100;21144;-72
2021/11/20 03:08:34;;;;;;;36.70;22.00;;;;;;;3.60;100.00;99132.89;1429214;100;21120;-71
2021/11/20 03:11:03;;;;;;;36.23;21.60;;;;;;;3.61;100.00;99123.86;1378853;104;21106;-72
2021/11/20 03:13:30;;;;;;;37.33;22.13;;;;;;;3.65;100.00;99131.95;1390544;103;21067;-72
2021/11/20 03:15:57;;;;;;;38.63;23.70;;;;;;;3.65;100.00;99113.23;1427788;101;21602;-73
2021/11/20 03:18:25;;;;;;;34.03;20.10;;;;;;;3.67;100.00;99099.73;1427810;101;21163;-71
2021/11/20 03:20:52;;;;;;;36.77;22.07;;;;;;;3.69;100.00;99096.41;1427649;101;21128;-72
2021/11/20 03:23:32;;;;;;;40.47;23.70;;;;;;;3.71;100.00;99083.22;1426343;100;21295;-72
2021/11/20 03:25:59;;;;;;;37.03;22.53;;;;;;;3.70;100.00;99085.56;1422340;101;21613;-72
2021/11/20 03:28:26;;;;;;;41.00;24.47;;;;;;;3.72;100.00;99080.03;1421985;101;21654;-72
2021/11/20 03:30:53;;;;;;;40.97;25.13;;;;;;;3.74;100.00;99072.73;1455820;95;21175;-71
2021/11/20 03:33:20;;;;;;;42.97;23.67;;;;;;;3.75;100.00;99067.23;1508664;95;21102;-71
2021/11/20 03:35:47;;;;;;;43.17;24.90;;;;;;;3.79;100.00;99067.78;1508498;95;21085;-71
2021/11/20 03:38:26;;;;;;;43.37;25.87;;;;;;;3.80;100.00;99057.41;1516116;95;21080;-72
2021/11/20 03:40:54;;;;;;;41.60;25.30;;;;;;;3.81;100.00;99055.09;1529853;91;21063;-71
2021/11/20 03:43:21;;;;;;;44.07;25.80;;;;;;;3.80;100.00;99052.05;1559695;91;21117;-71
2021/11/20 03:45:50;;;;;;;43.80;25.77;;;;;;;3.81;100.00;99039.05;1572350;91;21063;-71
2021/11/20 03:48:16;;;;;;;46.90;25.77;;;;;;;3.82;100.00;99030.01;1571506;91;21086;-71
2021/11/20 03:50:45;;;;;;;41.17;25.43;;;;;;;3.82;100.00;99027.34;1572075;91;21094;-72
2021/11/20 03:53:13;;;;;;;43.23;24.83;;;;;;;3.83;100.00;99026.86;1627127;86;21500;-72
2021/11/20 03:55:42;;;;;;;43.70;26.00;;;;;;;3.83;100.00;99025.02;1660378;86;21112;-71
2021/11/20 03:58:09;;;;;;;43.00;25.70;;;;;;;3.84;100.00;99015.98;1660522;86;21484;-72
2021/11/20 04:00:44;;;;;;;41.00;24.93;;;;;;;3.86;100.00;99017.17;1734593;81;21020;-70
2021/11/20 04:03:12;;;;;;;40.80;24.87;;;;;;;3.87;100.00;99018.36;1719450;83;21036;-70
2021/11/20 04:05:40;;;;;;;38.80;24.37;;;;;;;3.89;100.00;99007.52;1719523;83;21053;-71
2021/11/20 04:08:09;;;;;;;41.10;24.27;;;;;;;3.89;100.00;98998.16;1719527;83;21029;-71
2021/11/20 04:10:36;;;;;;;40.50;24.07;;;;;;;3.90;100.00;99000.68;1712702;83;21029;-72
2021/11/20 04:13:03;;;;;;;41.43;25.27;;;;;;;3.92;100.00;98998.69;1667061;86;21577;-71
2021/11/20 04:15:31;;;;;;;38.43;22.37;;;;;;;3.93;100.00;99002.19;1710455;84;21085;-72
2021/11/20 04:17:59;;;;;;;40.43;24.13;;;;;;;3.93;100.00;99008.41;1667202;86;21032;-71
2021/11/20 04:20:26;;;;;;;38.47;22.67;;;;;;;3.92;100.00;99001.36;1710504;84;21037;-70
2021/11/20 04:22:52;;;;;;;36.70;21.73;;;;;;;3.92;100.00;98997.34;1667243;86;21474;-73
2021/11/20 04:25:21;;;;;;;38.27;22.50;;;;;;;3.94;100.00;99000.70;1733490;81;21605;-71
2021/11/20 04:27:51;;;;;;;41.07;23.57;;;;;;;3.95;100.00;98990.87;1698811;84;21059;-70
2021/11/20 04:30:28;;;;;;;39.33;22.77;;;;;;;3.94;100.00;98983.83;1618354;89;21088;-72
2021/11/20 04:32:55;;;;;;;38.53;23.00;;;;;;;3.93;100.00;98979.45;1597102;89;21147;-70
2021/11/20 04:35:24;;;;;;;35.77;22.17;;;;;;;3.94;100.00;98965.10;1618387;89;21040;-71
2021/11/20 04:37:51;;;;;;;37.40;22.30;;;;;;;3.97;100.00;98959.45;1618500;89;21084;-72
2021/11/20 04:40:21;;;;;;;37.87;22.50;;;;;;;3.96;100.00;98967.95;1587465;90;21079;-72
2021/11/20 04:42:51;;;;;;;38.37;22.20;;;;;;;3.98;100.00;98965.13;1586623;90;21604;-72
2021/11/20 04:45:21;;;;;;;33.93;20.50;;;;;;;3.98;100.00;98975.34;1586748;90;21126;-71
2021/11/20 04:47:48;;;;;;;35.63;21.73;;;;;;;4.01;100.00;98947.94;1586588;90;21085;-72
2021/11/20 04:50:18;;;;;;;33.73;20.23;;;;;;;4.03;100.00;98948.63;1586695;90;21098;-71
2021/11/20 04:52:46;;;;;;;35.67;22.03;;;;;;;4.05;100.00;98940.77;1586529;90;21006;-71
2021/11/20 04:55:12;;;;;;;37.47;21.67;;;;;;;4.05;100.00;98929.23;1586717;90;21123;-73
2021/11/20 04:57:40;;;;;;;41.87;25.33;;;;;;;4.05;100.00;98935.42;1586662;90;21082;-73
2021/11/20 05:00:20;;;;;;;40.00;23.43;;;;;;;4.07;100.00;98927.24;1603964;89;21037;-71
2021/11/20 05:02:48;;;;;;;39.07;23.13;;;;;;;4.09;100.00;98930.59;1644622;87;21065;-73
2021/11/20 05:05:17;;;;;;;37.77;21.87;;;;;;;4.11;100.00;98929.97;1638848;87;20967;-72
2021/11/20 05:07:44;;;;;;;38.73;22.57;;;;;;;4.12;100.00;98922.27;1724407;82;21046;-72
2021/11/20 05:10:11;;;;;;;37.90;22.60;;;;;;;4.16;100.00;98923.62;1746055;82;21066;-72
2021/11/20 05:12:38;;;;;;;36.27;20.80;;;;;;;4.16;100.00;98911.58;1758542;82;20993;-73
2021/11/20 05:15:09;;;;;;;37.47;21.03;;;;;;;4.17;100.00;98911.93;1735907;82;21047;-73
2021/11/20 05:17:35;;;;;;;37.87;21.67;;;;;;;4.19;100.00;98895.22;1739805;82;21050;-73
2021/11/20 05:20:05;;;;;;;36.97;21.20;;;;;;;4.21;100.00;98899.08;1739970;82;21008;-71
2021/11/20 05:22:32;;;;;;;34.20;20.83;;;;;;;4.21;100.00;98893.72;1739853;82;21481;-72
2021/11/20 05:24:59;;;;;;;33.73;19.80;;;;;;;4.22;100.00;98892.23;1733324;82;21032;-73
2021/11/20 05:27:26;;;;;;;36.20;20.33;;;;;;;4.25;100.00;98877.69;1731097;83;21008;-73
2021/11/20 05:30:03;;;;;;;33.40;19.33;;;;;;;4.26;100.00;98878.03;1712770;83;21060;-72
2021/11/20 05:32:26;;;;;;;31.80;18.80;;;;;;;4.27;100.00;98867.69;1707772;83;21020;-73
2021/11/20 05:34:53;;;;;;;35.20;19.80;;;;;;;4.26;100.00;98868.67;1745503;82;20974;-71
2021/11/20 05:37:19;;;;;;;32.37;18.83;;;;;;;4.27;100.00;98851.63;1782565;80;21015;-72
2021/11/20 05:39:46;;;;;;;34.87;19.87;;;;;;;4.26;100.00;98853.45;1782585;80;21011;-70
2021/11/20 05:42:13;;;;;;;30.17;18.20;;;;;;;4.26;100.00;98850.77;1780853;81;21119;-71
2021/11/20 05:44:42;;;;;;;33.00;18.10;;;;;;;4.27;100.00;98851.63;1780890;80;21040;-72
2021/11/20 05:47:11;;;;;;;32.13;17.87;;;;;;;4.28;100.00;98857.30;1781111;80;21044;-71
2021/11/20 05:49:41;;;;;;;30.83;17.77;;;;;;;4.29;100.00;98858.48;1781275;81;21024;-71
2021/11/20 05:52:10;;;;;;;32.73;17.50;;;;;;;4.33;100.00;98870.54;1780443;81;21017;-69
2021/11/20 05:54:38;;;;;;;32.70;18.67;;;;;;;4.34;100.00;98863.38;1758504;81;21068;-71
2021/11/20 05:57:07;;;;;;;31.47;18.27;;;;;;;4.35;100.00;98857.00;1776959;81;20969;-72
2021/11/20 05:59:34;;;;;;;32.13;17.77;;;;;;;4.36;100.00;98841.30;1780481;81;21059;-70
2021/11/20 06:02:02;;;;;;;33.07;19.60;;;;;;;4.37;100.00;98837.60;1780553;81;21048;-71
2021/11/20 06:04:31;;;;;;;31.37;18.03;;;;;;;4.39;100.00;98831.58;1780140;80;21025;-70
2021/11/20 06:06:59;;;;;;;29.53;16.77;;;;;;;4.41;100.00;98830.95;1780361;81;21005;-71
2021/11/20 06:09:25;;;;;;;30.60;17.60;;;;;;;4.43;100.00;98828.11;1780508;80;20987;-72
2021/11/20 06:11:52;;;;;;;25.97;15.33;;;;;;;4.45;100.00;98835.48;1781892;80;21024;-71
2021/11/20 06:14:20;;;;;;;28.63;15.90;;;;;;;4.47;100.00;98830.80;1744664;82;20983;-71
2021/11/20 06:16:47;;;;;;;26.07;15.50;;;;;;;4.48;100.00;98837.33;1782011;80;20984;-72
2021/11/20 06:19:15;;;;;;;25.43;14.87;;;;;;;4.51;100.00;98823.60;1781439;80;21031;-71
2021/11/20 06:21:42;;;;;;;24.67;14.23;;;;;;;4.53;100.00;98831.00;1777082;80;21500;-71
2021/11/20 06:24:09;;;;;;;24.83;14.03;;;;;;;4.55;100.00;98817.42;1777235;80;21030;-71
2021/11/20 06:26:37;;;;;;;26.37;14.53;;;;;;;4.57;100.00;98824.81;1787236;80;21045;-70
2021/11/20 06:29:04;;;;;;;21.43;12.93;;;;;;;4.61;100.00;98815.45;1787598;80;21077;-71
2021/11/20 06:31:34;;;;;;;20.63;12.63;;;;;;;4.64;100.00;98833.02;1787514;80;21023;-69
2021/11/20 06:34:11;;;;;;;20.30;11.83;;;;;;;4.66;100.00;98825.69;1730285;83;21400;-70
2021/11/20 06:36:43;;;;;;;19.50;10.97;;;;;;;4.68;100.00;98816.98;1678076;85;21090;-68
2021/11/20 06:39:12;;;;;;;21.03;11.80;;;;;;;4.73;100.00;98809.30;1674565;85;21446;-69
2021/11/20 06:41:41;;;;;;;18.37;10.80;;;;;;;4.74;100.00;98812.30;1664732;85;21082;-69
2021/11/20 06:44:08;;;;;;;17.80;10.47;;;;;;;4.77;100.00;98791.89;1661690;86;21594;-68
2021/11/20 06:46:34;;;;;;;15.63;9.33;;;;;;;4.80;100.00;98792.91;1661413;86;21014;-68
2021/11/20 06:49:02;;;;;;;15.57;9.10;;;;;;;4.82;100.00;98794.92;1661544;86;21037;-71
2021/11/20 06:51:31;;;;;;;15.77;8.80;;;;;;;4.84;100.00;98779.52;1661655;86;21046;-69
2021/11/20 06:54:17;;;;;;;15.73;8.77;;;;;;;4.86;100.00;98778.02;1661357;86;21523;-71
2021/11/20 06:57:08;;;;;;;13.97;8.53;;;;;;;4.90;100.00;98764.62;1661749;86;21520;-71
2021/11/20 07:03:13;;;;;;;12.90;7.73;;;;;;;4.94;100.00;98754.75;1663078;85;21073;-71
2021/11/20 07:05:52;;;;;;;12.80;7.20;;;;;;;4.98;100.00;98749.08;1657764;85;21014;-70
2021/11/20 07:08:19;;;;;;;12.70;7.27;;;;;;;5.00;100.00;98751.91;1618454;88;21381;-71
2021/11/20 07:10:47;;;;;;;14.73;7.90;;;;;;;5.03;100.00;98754.26;1604886;87;21497;-71
2021/11/20 07:13:14;;;;;;;13.93;8.43;;;;;;;5.05;100.00;98732.66;1587083;87;21080;-71
2021/11/20 07:15:41;;;;;;;13.37;7.47;;;;;;;5.05;100.00;98737.52;1633154;87;21082;-70
2021/11/20 07:18:09;;;;;;;13.47;7.53;;;;;;;5.07;100.00;98721.27;1627782;87;21081;-70
2021/11/20 07:20:55;;;;;;;11.70;6.80;;;;;;;5.08;100.00;98731.83;1629649;87;21491;-71
2021/11/20 07:23:34;;;;;;;11.03;7.07;;;;;;;5.12;100.00;98726.45;1630999;87;21545;-71
2021/11/20 07:26:03;;;;;;;13.00;7.57;;;;;;;5.17;100.00;98717.06;1629070;87;21592;-70
2021/11/20 07:28:30;;;;;;;16.90;9.27;;;;;;;5.18;100.00;98724.11;1624402;87;21063;-73
2021/11/20 07:30:58;;;;;;;16.80;8.83;;;;;;;5.18;100.00;98711.54;1628293;87;21082;-71
2021/11/20 07:33:25;;;;;;;17.73;8.90;;;;;;;5.22;100.00;98715.55;1627230;87;21072;-71
2021/11/20 07:35:56;;;;;;;16.10;8.97;;;;;;;5.24;100.00;98713.56;1630270;87;21057;-70
2021/11/20 07:38:35;;;;;;;15.93;9.17;;;;;;;5.28;100.00;98716.73;1624722;87;20990;-69
2021/11/20 07:41:02;;;;;;;13.03;8.10;;;;;;;5.30;100.00;98706.16;1629726;87;21078;-69
2021/11/20 07:43:30;;;;;;;12.00;7.07;;;;;;;5.33;100.00;98709.86;1626922;87;21677;-68
2021/11/20 07:46:00;;;;;;;12.27;7.10;;;;;;;5.38;100.00;98689.73;1630812;87;21116;-70
2021/11/20 07:48:28;;;;;;;10.37;7.13;;;;;;;5.40;100.00;98704.66;1626275;87;21077;-70
2021/11/20 07:50:57;;;;;;;9.90;6.30;;;;;;;5.42;100.00;98703.98;1626236;87;21487;-69
2021/11/20 07:53:25;;;;;;;12.67;7.43;;;;;;;5.46;100.00;98713.86;1555199;92;21488;-72
2021/11/20 07:55:52;;;;;;;12.07;7.50;;;;;;;5.48;100.00;98708.64;1532360;92;21099;-68
2021/11/20 07:58:20;;;;;;;10.33;6.90;;;;;;;5.50;100.00;98696.41;1574874;90;21575;-70
2021/11/20 08:00:48;;;;;;;10.50;6.63;;;;;;;5.55;100.00;98699.41;1561766;91;21083;-69
2021/11/20 08:03:15;;;;;;;13.50;7.63;;;;;;;5.61;100.00;98688.50;1560713;92;21099;-68
2021/11/20 08:05:44;;;;;;;10.33;6.27;;;;;;;5.64;100.00;98670.22;1570177;90;21062;-69
2021/11/20 08:08:31;;;;;;;10.20;6.93;;;;;;;5.67;100.00;98669.88;1570289;90;21084;-71
2021/11/20 08:11:17;;;;;;;12.63;8.17;;;;;;;5.71;100.00;98660.98;1576469;90;21064;-71
2021/11/20 08:13:45;;;;;;;16.80;9.97;;;;;;;5.76;100.00;98664.50;1576644;91;21132;-70
2021/11/20 08:16:17;;;;;;;19.60;11.57;;;;;;;5.76;100.00;98658.62;1571315;90;21185;-70
2021/11/20 08:18:55;;;;;;;19.30;10.93;;;;;;;5.79;100.00;98664.12;1553456;91;21148;-72
2021/11/20 08:21:28;;;;;;;18.20;10.97;;;;;;;5.81;100.00;98660.28;1523178;93;21106;-70
2021/11/20 08:23:59;;;;;;;17.77;9.70;;;;;;;5.86;100.00;98655.71;1528490;93;21043;-72
2021/11/20 08:26:35;;;;;;;17.80;10.00;;;;;;;5.91;100.00;98645.30;1526432;93;21640;-72
2021/11/20 08:28:55;;;;;;;16.90;9.63;;;;;;;5.93;100.00;98628.51;1523302;93;21103;-69
2021/11/20 08:31:23;;;;;;;15.27;9.53;;;;;;;5.97;100.00;98643.81;1563448;91;21129;-70
2021/11/20 08:34:02;;;;;;;14.40;9.03;;;;;;;6.06;100.00;98645.44;1543158;93;21088;-71
2021/11/20 08:36:37;;;;;;;15.90;9.73;;;;;;;6.10;100.00;98649.42;1582005;91;21123;-69
2021/11/20 08:39:14;;;;;;;20.13;10.93;;;;;;;6.15;100.00;98632.30;1555362;92;21291;-71
2021/11/20 08:41:46;;;;;;;16.63;9.87;;;;;;;6.20;100.00;98634.45;1539667;93;21086;-72
2021/11/20 08:44:13;;;;;;;28.23;16.83;;;;;;;6.27;100.00;98632.73;1589387;89;21073;-70
2021/11/20 08:46:45;;;;;;;34.63;19.93;;;;;;;6.31;100.00;98622.47;1593386;90;21542;-71
2021/11/20 08:49:13;;;;;;;36.27;21.13;;;;;;;6.35;100.00;98610.35;1576425;90;21155;-71
2021/11/20 08:51:41;;;;;;;37.63;21.93;;;;;;;6.39;100.00;98611.66;1569305;90;21091;-70
2021/11/20 08:54:08;;;;;;;41.63;22.30;;;;;;;6.45;100.00;98609.61;1569314;90;21075;-74
2021/11/20 08:56:38;;;;;;;45.83;24.23;;;;;;;6.47;100.00;98612.95;1576286;90;21038;-75
2021/11/20 08:59:09;;;;;;;51.30;26.27;;;;;;;6.50;100.00;98599.17;1570085;90;21106;-73
2021/11/20 09:02:02;;;;;;;43.17;25.10;;;;;;;6.56;100.00;98602.46;1567577;90;21631;-76
2021/11/20 09:04:43;;;;;;;52.30;31.67;;;;;;;6.61;100.00;98602.76;1570850;87;21083;-75
2021/11/20 09:07:33;;;;;;;54.70;30.50;;;;;;;6.67;100.00;98599.84;1504705;94;21153;-75
2021/11/20 09:10:41;;;;;;;55.23;30.33;;;;;;;6.73;100.00;98591.56;1498992;94;21117;-71
2021/11/20 09:13:19;;;;;;;48.63;26.97;;;;;;;6.78;100.00;98598.09;1463927;97;21095;-71
2021/11/20 09:15:55;;;;;;;100.63;44.53;;;;;;;6.83;100.00;98594.36;1484531;96;21072;-73
2021/11/20 09:18:24;;;;;;;62.53;33.33;;;;;;;6.86;100.00;98573.51;1446268;98;21329;-70
2021/11/20 09:20:52;;;;;;;87.83;40.70;;;;;;;6.91;100.00;98562.53;1424607;99;21098;-70
2021/11/20 09:23:39;;;;;;;58.97;30.03;;;;;;;6.98;100.00;98566.14;1422479;99;21077;-70
2021/11/20 09:26:07;;;;;;;62.33;30.07;;;;;;;7.04;100.00;98564.57;1415095;100;21112;-69
2021/11/20 09:28:36;;;;;;;33.47;21.30;;;;;;;7.12;100.00;98558.26;1429323;99;21637;-69
2021/11/20 09:31:06;;;;;;;22.50;16.27;;;;;;;7.18;100.00;98546.78;1423180;99;21100;-70
2021/11/20 09:33:35;;;;;;;22.00;14.57;;;;;;;7.26;100.00;98548.05;1424167;99;21079;-72
2021/11/20 09:36:04;;;;;;;22.83;14.83;;;;;;;7.35;100.00;98541.53;1414456;99;21105;-72
2021/11/20 09:38:42;;;;;;;23.17;15.93;;;;;;;7.43;100.00;98533.87;1408471;99;21644;-72
2021/11/20 09:41:18;;;;;;;21.63;14.37;;;;;;;7.51;100.00;98531.60;1412005;101;21144;-71
2021/11/20 09:43:49;;;;;;;36.87;25.10;;;;;;;7.59;100.00;98536.34;1417710;101;21696;-69
2021/11/20 09:46:44;;;;;;;39.23;23.23;;;;;;;7.67;100.00;98523.83;1393348;103;21118;-71
2021/11/20 09:49:17;;;;;;;48.57;25.00;;;;;;;7.72;100.00;98522.23;1373049;103;21110;-69
2021/11/20 09:51:50;;;;;;;48.50;25.87;;;;;;;7.75;100.00;98513.75;1368888;105;21180;-71
2021/11/20 09:54:27;;;;;;;54.27;26.90;;;;;;;7.76;100.00;98515.95;1382832;103;21643;-70
2021/11/20 09:57:11;;;;;;;80.83;39.20;;;;;;;7.77;100.00;98512.22;1384138;102;21697;-72
2021/11/20 09:59:47;;;;;;;51.90;28.13;;;;;;;7.74;100.00;98522.05;1385162;103;21714;-70
2021/11/20 10:02:31;;;;;;;40.53;22.70;;;;;;;7.74;100.00;98526.08;1385003;102;21241;-69
2021/11/20 10:05:06;;;;;;;33.93;18.47;;;;;;;7.74;100.00;98520.17;1450355;97;21595;-69
2021/11/20 10:07:44;;;;;;;27.07;17.47;;;;;;;7.78;100.00;98520.63;1457313;97;21144;-70
2021/11/20 10:10:28;;;;;;;21.43;13.90;;;;;;;7.82;100.00;98520.56;1476337;96;21145;-70
2021/11/20 10:13:17;;;;;;;21.63;13.20;;;;;;;7.87;100.00;98504.67;1460740;97;21093;-70
2021/11/20 10:16:03;;;;;;;21.93;14.00;;;;;;;7.98;100.00;98516.30;1507116;93;21535;-70
2021/11/20 10:18:41;;;;;;;31.50;19.80;;;;;;;8.09;100.00;98509.57;1499085;95;21081;-69
2021/11/20 10:21:32;;;;;;;26.10;16.77;;;;;;;8.20;100.00;98512.75;1477044;95;21740;-68
2021/11/20 10:24:41;;;;;;;21.17;13.57;;;;;;;8.30;100.00;98501.97;1495344;95;21082;-70
2021/11/20 10:27:45;;;;;;;23.67;14.20;;;;;;;8.40;100.00;98506.21;1522382;94;21070;-69
2021/11/20 10:30:56;;;;;;;17.60;10.80;;;;;;;8.49;100.00;98499.68;1523554;93;21667;-68
2021/11/20 10:33:31;;;;;;;17.80;10.90;;;;;;;8.51;100.00;98494.41;1466734;96;21077;-72
2021/11/20 10:36:32;;;;;;;15.87;9.67;;;;;;;8.56;100.00;98497.87;1509164;94;21144;-68
2021/11/20 10:50:45;;;;;;;9.70;6.33;;;;;;;9.33;100.00;98530.27;1808455;78;22839;-70
2021/11/20 10:53:38;;;;;;;8.60;5.40;;;;;;;9.39;100.00;98493.89;1705066;84;21514;-70
2021/11/20 10:56:26;;;;;;;9.10;5.53;;;;;;;9.40;100.00;98489.32;1669724;85;21036;-70
2021/11/20 10:59:08;;;;;;;5.43;4.60;;;;;;;9.39;100.00;98482.28;1701596;84;20994;-71
2021/11/20 11:02:05;;;;;;;7.40;4.90;;;;;;;9.38;100.00;98480.59;1685877;84;21076;-68
2021/11/20 11:05:16;;;;;;;9.13;5.83;;;;;;;9.36;100.00;98479.45;1678167;84;21084;-65
2021/11/20 11:08:28;;;;;;;12.13;6.33;;;;;;;9.36;100.00;98479.45;1656023;85;21023;-64
2021/11/20 11:11:12;;;;;;;14.23;7.77;;;;;;;9.36;100.00;98483.49;1666895;85;21530;-65
2021/11/20 11:14:03;;;;;;;19.53;9.10;;;;;;;9.33;100.00;98479.88;1678457;85;21212;-65
2021/11/20 11:16:38;;;;;;;23.83;9.80;;;;;;;9.34;100.00;98476.66;1668570;85;21581;-66
2021/11/20 11:19:37;;;;;;;26.37;11.23;;;;;;;9.33;100.00;98487.97;1654676;86;21069;-66
2021/11/20 11:22:24;;;;;;;20.43;8.23;;;;;;;9.32;100.00;98482.24;1671111;85;21141;-65
2021/11/20 11:25:17;;;;;;;12.33;5.83;;;;;;;9.28;100.00;98491.78;1688817;84;21061;-65
2021/11/20 11:44:38;;;;;;;8.68;4.60;;;;;;;9.68;100.00;98507.61;1656916;84;21134;-71
2021/11/20 11:47:52;;;;;;;11.95;5.60;;;;;;;9.63;100.00;98511.92;1651041;86;21119;-69
2021/11/20 11:51:01;;;;;;;15.18;7.85;;;;;;;9.59;100.00;98519.59;1665448;86;21059;-73
2021/11/20 11:56:41;;;;;;;11.43;6.10;;;;;;;9.49;100.00;98516.43;1626523;88;21050;-71
2021/11/20 11:59:45;;;;;;;7.93;4.33;;;;;;;9.44;100.00;98511.66;1629334;88;21101;-70
2021/11/20 12:02:37;;;;;;;8.70;4.30;;;;;;;9.43;100.00;98514.55;1629666;88;21138;-70
2021/11/20 12:05:27;;;;;;;10.95;5.25;;;;;;;9.43;100.00;98515.91;1629945;88;21074;-70
2021/11/20 12:08:00;;;;;;;8.90;5.33;;;;;;;9.41;100.00;98516.63;1610331;87;21093;-70
2021/11/20 12:10:35;;;;;;;10.77;4.97;;;;;;;9.38;100.00;98515.14;1517384;93;21108;-72
2021/11/20 12:13:10;;;;;;;7.63;4.33;;;;;;;9.37;100.00;98522.12;1427307;99;21159;-71
2021/11/20 12:15:45;;;;;;;8.53;4.90;;;;;;;9.36;100.00;98522.61;1423977;98;21144;-71
2021/11/20 12:18:25;;;;;;;10.47;4.80;;;;;;;9.36;100.00;98541.49;1458003;96;21143;-70
2021/11/20 12:21:04;;;;;;;9.50;4.50;;;;;;;9.36;100.00;98539.32;1460871;98;21611;-71
2021/11/20 12:23:49;;;;;;;8.73;4.40;;;;;;;9.38;100.00;98540.77;1481062;94;21188;-70